Time;durP1;ratioP1;P1;durP2;ratioP2;P2;SDS_P1;SDS_P2;PMS_P1;PMS_P2;Temp;Humidity;BMP_temperature;BMP_pressure;BME280_temperature;BME280_humidity;BME280_pressure;Samples;Min_cycle;Max_cycle;Signal;HPM_P1;HPM_P2
2022/12/29 00:01:17;;;;;;;35.03;19.70;;;;;;;5.95;71.15;96166.31;4994932;28;20220;-80
2022/12/29 00:03:45;;;;;;;34.90;19.98;;;;;;;5.98;71.15;96161.41;4995215;28;20034;-80
2022/12/29 00:06:10;;;;;;;41.65;21.55;;;;;;;5.29;71.15;96046.75;4977484;28;20049;-81
2022/12/29 00:08:41;;;;;;;38.20;22.15;;;;;;;5.64;71.35;96104.06;5009334;28;20084;-81
2022/12/29 00:11:12;;;;;;;36.42;20.83;;;;;;;5.51;71.86;96085.78;4994408;28;20049;-80
2022/12/29 00:16:23;;;;;;;47.85;23.65;;;;;;;5.87;71.58;96172.66;4994656;28;20049;-81
2022/12/29 00:18:49;;;;;;;43.65;23.20;;;;;;;5.94;71.54;96170.78;4977640;28;20054;-80
2022/12/29 00:35:10;;;;;;;45.72;23.70;;;;;;;5.19;71.08;96072.75;4994775;28;20041;-81
2022/12/29 00:45:54;;;;;;;42.65;23.90;;;;;;;5.86;71.02;96172.84;4994479;28;20468;-80
2022/12/29 00:49:29;;;;;;;41.90;23.58;;;;;;;5.82;71.43;96185.66;4994087;28;20034;-81
2022/12/29 00:51:06;;;;;;;42.75;23.23;;;;;;;5.33;71.21;96105.81;4994003;28;20100;-81
2022/12/29 00:53:32;;;;;;;55.95;24.58;;;;;;;5.25;71.41;96111.34;4994595;28;20026;-81
2022/12/29 00:55:57;;;;;;;49.28;24.48;;;;;;;5.75;70.58;96164.66;4980602;28;20450;-81
2022/12/29 00:58:23;;;;;;;42.47;24.08;;;;;;;5.38;70.57;96094.63;4998525;28;20098;-80
2022/12/29 01:00:48;;;;;;;42.00;22.67;;;;;;;5.89;70.96;96186.41;4985942;28;20061;-80
2022/12/29 01:03:14;;;;;;;41.67;22.27;;;;;;;5.91;70.84;96187.00;4997235;28;20033;-80
2022/12/29 01:05:39;;;;;;;38.55;21.90;;;;;;;5.64;70.58;96141.72;4979560;28;20042;-80
2022/12/29 01:08:05;;;;;;;40.33;22.92;;;;;;;5.93;70.84;96186.78;4979371;28;20563;-80
2022/12/29 01:10:30;;;;;;;43.50;22.77;;;;;;;5.08;70.58;96049.81;4988283;28;20456;-80
2022/12/29 01:12:55;;;;;;;39.17;21.98;;;;;;;4.14;70.48;95888.00;4996699;28;20042;-80
2022/12/29 01:15:21;;;;;;;35.65;20.80;;;;;;;5.19;70.32;96062.22;4979697;28;20636;-80
2022/12/29 01:17:47;;;;;;;43.60;22.42;;;;;;;4.96;70.50;96020.78;4996895;28;20065;-80
2022/12/29 01:20:12;;;;;;;37.83;21.63;;;;;;;5.34;70.70;96086.34;5011399;28;20058;-80
2022/12/29 01:22:38;;;;;;;40.08;21.63;;;;;;;5.86;70.45;96170.22;4996615;28;20413;-80
2022/12/29 01:25:05;;;;;;;37.80;21.52;;;;;;;4.94;71.08;96028.13;4979077;28;20064;-80
2022/12/29 01:27:30;;;;;;;29.60;18.40;;;;;;;5.86;71.05;96178.13;4996933;28;20128;-80
2022/12/29 01:29:56;;;;;;;34.72;19.02;;;;;;;4.42;70.63;95940.09;4979248;28;20065;-80
2022/12/29 01:32:21;;;;;;;35.00;19.55;;;;;;;5.39;70.83;96094.41;4996938;28;20053;-80
2022/12/29 01:34:47;;;;;;;36.72;20.17;;;;;;;5.49;70.79;96128.13;4996616;28;20046;-80
2022/12/29 01:37:12;;;;;;;32.63;19.40;;;;;;;5.32;70.99;96084.97;4996366;28;20420;-80
2022/12/29 01:39:38;;;;;;;33.47;18.27;;;;;;;4.84;70.28;96009.41;4995598;28;20089;-80
2022/12/29 01:42:03;;;;;;;33.97;19.38;;;;;;;5.73;70.93;96155.38;4986894;28;20034;-80
2022/12/29 01:44:48;;;;;;;33.65;19.38;;;;;;;5.74;71.02;96151.72;4995926;28;20495;-80
2022/12/29 01:47:28;;;;;;;35.22;19.33;;;;;;;5.24;70.86;96070.28;5010760;28;20034;-80
2022/12/29 01:49:56;;;;;;;29.48;18.65;;;;;;;5.52;71.15;96126.84;4995232;28;20430;-80
2022/12/29 01:52:24;;;;;;;32.38;18.98;;;;;;;5.12;71.21;96073.84;4996046;28;20113;-80
2022/12/29 01:54:53;;;;;;;37.30;19.38;;;;;;;5.22;71.27;96080.22;4975609;28;20073;-80
2022/12/29 01:57:24;;;;;;;30.48;19.02;;;;;;;5.55;71.53;96142.22;4996123;28;20116;-80
2022/12/29 01:59:56;;;;;;;31.77;18.83;;;;;;;5.04;71.40;96062.56;4991298;28;20113;-80
2022/12/29 02:02:23;;;;;;;32.10;18.23;;;;;;;4.88;71.16;96017.66;4986652;28;20543;-80
2022/12/29 02:04:48;;;;;;;30.75;18.80;;;;;;;5.53;71.02;96123.19;5010125;28;20094;-80
2022/12/29 02:07:19;;;;;;;32.95;19.45;;;;;;;4.77;71.19;95992.09;4978258;28;20113;-80
2022/12/29 02:09:49;;;;;;;29.48;17.38;;;;;;;5.65;71.52;96131.97;4996029;28;20034;-80
2022/12/29 02:12:18;;;;;;;33.03;18.30;;;;;;;4.84;71.35;96017.28;4978235;28;20684;-80
2022/12/29 02:14:43;;;;;;;33.38;18.80;;;;;;;5.32;71.25;96087.59;4996296;28;20453;-80
2022/12/29 02:17:35;;;;;;;31.05;18.38;;;;;;;5.64;70.99;96133.00;4995172;28;20045;-80
2022/12/29 02:20:21;;;;;;;32.13;17.90;;;;;;;5.65;71.59;96137.22;4969923;28;20070;-80
2022/12/29 02:23:11;;;;;;;32.72;18.10;;;;;;;5.68;71.23;96128.91;4976640;28;20034;-80
2022/12/29 02:26:04;;;;;;;34.88;18.55;;;;;;;5.65;71.53;96129.34;4976692;28;20062;-80
2022/12/29 02:28:52;;;;;;;31.88;17.92;;;;;;;5.31;71.34;96086.81;4992322;28;20124;-80
2022/12/29 02:31:39;;;;;;;27.30;16.20;;;;;;;5.67;71.17;96129.94;4974826;28;20074;-81
2022/12/29 02:34:29;;;;;;;28.75;16.83;;;;;;;4.25;71.06;95908.31;4978261;28;20042;-80
2022/12/29 02:37:17;;;;;;;31.50;17.33;;;;;;;5.10;70.85;96042.53;4977794;28;20381;-80
2022/12/29 02:40:05;;;;;;;31.38;17.50;;;;;;;5.67;71.03;96130.72;4995502;28;20042;-80
2022/12/29 02:42:33;;;;;;;33.45;17.67;;;;;;;5.67;70.36;96132.56;4994601;28;20030;-83
2022/12/29 02:45:15;;;;;;;30.90;17.95;;;;;;;5.48;70.19;96099.38;4991492;28;20198;-83
2022/12/29 02:48:17;;;;;;;31.98;17.23;;;;;;;5.65;70.20;96127.50;4973639;28;20124;-83
2022/12/29 02:50:52;;;;;;;32.03;18.00;;;;;;;5.62;70.51;96133.22;4982172;28;20031;-83
2022/12/29 02:54:40;;;;;;;30.65;17.25;;;;;;;5.01;70.27;96026.22;4983138;28;20038;-83
2022/12/29 02:56:05;;;;;;;29.15;16.35;;;;;;;5.10;70.55;96039.09;4990728;28;20038;-83
2022/12/29 02:58:31;;;;;;;33.75;17.63;;;;;;;5.15;70.00;96034.78;4973508;28;20489;-83
2022/12/29 03:01:15;;;;;;;31.55;17.33;;;;;;;5.67;70.58;96112.31;4973518;28;20034;-83
2022/12/29 03:03:59;;;;;;;27.55;16.58;;;;;;;5.67;69.99;96116.78;4973292;28;20034;-83
2022/12/29 03:06:51;;;;;;;31.25;18.35;;;;;;;5.12;70.28;96029.94;4973365;28;20101;-83
2022/12/29 03:09:25;;;;;;;39.97;19.30;;;;;;;5.51;70.22;96091.84;4980511;28;20034;-83
2022/12/29 03:12:11;;;;;;;31.65;18.02;;;;;;;5.64;70.47;96115.41;4984282;28;20124;-83
2022/12/29 03:18:15;;;;;;;30.80;17.65;;;;;;;5.69;69.81;96114.72;4990823;28;20417;-84
2022/12/29 03:20:55;;;;;;;31.35;18.15;;;;;;;4.60;70.54;95950.59;4971141;28;20054;-83
2022/12/29 03:23:22;;;;;;;34.85;18.38;;;;;;;5.24;70.30;96038.72;4971307;28;20786;-84
2022/12/29 03:25:51;;;;;;;31.58;17.60;;;;;;;5.21;70.06;96038.34;4971459;28;20030;-83
2022/12/29 03:28:23;;;;;;;33.92;18.83;;;;;;;5.01;69.95;96010.44;4971165;28;20034;-84
2022/12/29 03:30:49;;;;;;;32.03;17.52;;;;;;;4.41;69.72;95912.22;4953801;28;20498;-84
2022/12/29 03:33:23;;;;;;;32.13;18.20;;;;;;;5.01;70.15;96014.91;4970871;28;20033;-83
2022/12/29 03:35:53;;;;;;;34.33;18.20;;;;;;;4.89;70.11;96009.53;4969847;28;20027;-84
2022/12/29 03:38:24;;;;;;;33.85;19.02;;;;;;;4.64;70.19;95983.31;4983963;28;20035;-83
2022/12/29 03:40:54;;;;;;;35.58;19.67;;;;;;;5.32;70.25;96112.09;4971140;28;20045;-83
2022/12/29 03:43:20;;;;;;;39.95;21.58;;;;;;;4.28;70.17;95955.13;4971121;28;20121;-83
2022/12/29 03:45:45;;;;;;;47.15;21.27;;;;;;;4.70;69.97;96017.63;4971221;28;20562;-83
2022/12/29 03:48:11;;;;;;;39.90;21.17;;;;;;;4.87;70.36;96061.53;4971005;28;20042;-83
2022/12/29 03:50:36;;;;;;;35.80;20.10;;;;;;;4.82;70.41;96066.63;4985787;28;20039;-84
2022/12/29 03:53:01;;;;;;;37.53;20.17;;;;;;;4.81;70.05;96066.84;4970813;28;20034;-83
2022/12/29 03:55:27;;;;;;;34.72;19.50;;;;;;;4.43;69.98;96009.16;4953259;28;20035;-82
2022/12/29 03:57:52;;;;;;;35.03;19.95;;;;;;;4.49;70.07;96030.13;4970762;28;20035;-84
2022/12/29 04:00:18;;;;;;;36.78;19.67;;;;;;;4.40;70.23;96031.41;4970663;28;20030;-83
2022/12/29 04:02:43;;;;;;;34.90;19.60;;;;;;;4.86;70.54;96123.00;4970572;28;20144;-83
2022/12/29 04:05:08;;;;;;;41.20;21.00;;;;;;;4.97;70.42;96139.91;4970756;28;20023;-83
2022/12/29 04:07:34;;;;;;;34.30;18.92;;;;;;;4.10;71.02;96012.03;4953348;28;20035;-84
2022/12/29 04:09:59;;;;;;;41.15;22.02;;;;;;;4.85;70.65;96124.03;4953198;28;20031;-83
2022/12/29 04:12:25;;;;;;;38.55;21.52;;;;;;;3.96;71.20;95997.41;4985614;28;20109;-83
2022/12/29 04:14:50;;;;;;;41.80;21.92;;;;;;;4.54;71.03;96090.72;4970709;28;20039;-83
2022/12/29 04:17:15;;;;;;;38.75;20.88;;;;;;;4.83;71.30;96141.03;4970772;28;20023;-84
2022/12/29 04:19:41;;;;;;;42.53;21.92;;;;;;;4.63;71.51;96117.53;4965779;28;20058;-83
2022/12/29 04:22:06;;;;;;;45.50;23.23;;;;;;;3.96;71.55;96027.06;4989754;28;20103;-83
2022/12/29 04:24:32;;;;;;;38.75;21.55;;;;;;;4.03;71.83;96037.53;4990083;28;20023;-84
2022/12/29 04:26:57;;;;;;;42.33;20.95;;;;;;;3.93;71.85;96021.44;4991010;28;20038;-83
2022/12/29 04:29:23;;;;;;;45.00;21.60;;;;;;;4.08;71.47;96051.63;4976086;28;20477;-83
2022/12/29 04:31:48;;;;;;;38.30;21.92;;;;;;;3.77;72.11;96018.28;4976228;28;20440;-83
2022/12/29 04:34:13;;;;;;;41.22;21.58;;;;;;;3.46;72.18;95976.28;4975809;28;20023;-83
2022/12/29 04:36:42;;;;;;;39.28;21.27;;;;;;;4.35;72.41;96117.91;4993754;28;20040;-83
2022/12/29 04:39:07;;;;;;;44.03;21.92;;;;;;;4.23;72.51;96114.34;4993671;28;20035;-84
2022/12/29 04:41:33;;;;;;;39.53;21.70;;;;;;;3.48;72.39;95998.66;5008523;28;20061;-83
2022/12/29 04:43:58;;;;;;;43.55;22.73;;;;;;;3.61;72.34;96025.84;4993347;28;20089;-83
2022/12/29 04:46:24;;;;;;;46.00;24.73;;;;;;;3.88;72.59;96061.44;4993366;28;20117;-84
2022/12/29 04:48:49;;;;;;;40.30;21.38;;;;;;;3.70;72.37;96045.56;4993124;28;20044;-83
2022/12/29 04:51:14;;;;;;;43.97;22.35;;;;;;;3.78;72.90;96076.81;4993304;28;20392;-84
2022/12/29 04:53:40;;;;;;;41.42;22.42;;;;;;;3.66;72.80;96047.78;4993278;28;20030;-84
2022/12/29 04:56:06;;;;;;;57.13;25.95;;;;;;;3.80;72.72;96083.47;4993148;28;20034;-83
2022/12/29 04:58:31;;;;;;;81.60;41.15;;;;;;;3.63;73.01;96052.66;4982267;28;20531;-83
2022/12/29 05:00:57;;;;;;;75.03;39.72;;;;;;;3.97;73.13;96106.63;4975948;28;20041;-84
2022/12/29 05:03:22;;;;;;;70.25;38.58;;;;;;;4.31;73.31;96164.00;4993324;28;20041;-83
2022/12/29 05:05:47;;;;;;;49.88;30.10;;;;;;;4.35;72.78;96170.41;4993366;28;20030;-83
2022/12/29 05:08:13;;;;;;;50.72;28.08;;;;;;;3.71;73.46;96063.72;4992921;28;20117;-83
2022/12/29 05:10:38;;;;;;;42.35;23.55;;;;;;;4.02;73.09;96106.78;4993127;28;20369;-83
2022/12/29 05:13:04;;;;;;;38.13;21.23;;;;;;;3.33;73.16;95992.88;4992870;28;20105;-84
2022/12/29 05:15:29;;;;;;;36.20;20.50;;;;;;;4.38;73.65;96164.75;4992977;28;20049;-83
2022/12/29 05:18:13;;;;;;;37.03;19.42;;;;;;;4.44;73.82;96169.16;4992637;28;20035;-83
2022/12/29 05:20:38;;;;;;;35.58;18.80;;;;;;;4.48;73.12;96162.50;4992627;28;20054;-83
2022/12/29 05:23:04;;;;;;;31.20;18.00;;;;;;;4.06;73.48;96115.84;4975225;28;20026;-83
2022/12/29 05:25:29;;;;;;;31.50;17.92;;;;;;;3.95;73.91;96077.97;4993085;28;20022;-83
2022/12/29 05:27:55;;;;;;;33.90;16.48;;;;;;;3.89;73.34;96058.59;4979004;28;20039;-84
2022/12/29 05:30:20;;;;;;;38.17;16.90;;;;;;;4.34;73.54;96128.63;4992800;28;20034;-84
2022/12/29 05:32:45;;;;;;;35.25;17.95;;;;;;;4.67;73.30;96166.00;4974948;28;20037;-83
2022/12/29 05:35:11;;;;;;;30.55;19.05;;;;;;;4.32;73.20;96107.03;4992029;28;20042;-83
2022/12/29 05:37:36;;;;;;;36.67;19.52;;;;;;;4.43;73.05;96127.34;4974794;28;20041;-83
2022/12/29 05:40:02;;;;;;;34.35;19.20;;;;;;;4.38;73.29;96112.22;4974628;28;20551;-83
2022/12/29 05:42:27;;;;;;;36.03;19.65;;;;;;;3.97;72.98;96054.13;4974589;28;20034;-84
2022/12/29 05:44:53;;;;;;;33.78;19.05;;;;;;;4.21;72.96;96088.28;4992135;28;20030;-83
2022/12/29 05:47:19;;;;;;;55.15;21.70;;;;;;;4.74;72.79;96177.25;4992345;28;20120;-83
2022/12/29 05:49:44;;;;;;;41.90;21.95;;;;;;;4.70;73.27;96162.94;4992123;28;20042;-83
2022/12/29 05:52:41;;;;;;;46.60;21.58;;;;;;;4.76;73.50;96172.59;4992204;28;20045;-83
2022/12/29 05:55:07;;;;;;;38.70;19.83;;;;;;;4.12;72.92;96076.44;4991832;28;20138;-83
2022/12/29 05:57:32;;;;;;;40.63;21.20;;;;;;;3.83;72.47;96009.56;4989716;28;20109;-83
2022/12/29 05:59:59;;;;;;;43.17;21.45;;;;;;;4.22;72.30;96073.34;4971584;28;20034;-84
2022/12/29 06:02:25;;;;;;;41.85;20.33;;;;;;;4.12;72.45;96060.69;4988696;28;20579;-83
2022/12/29 06:04:50;;;;;;;41.05;20.52;;;;;;;4.48;72.24;96119.66;4990662;28;20034;-83
2022/12/29 06:07:15;;;;;;;40.80;20.63;;;;;;;4.55;72.17;96126.47;4982611;28;20120;-83
2022/12/29 06:09:41;;;;;;;43.42;21.48;;;;;;;4.47;72.31;96100.47;4991002;28;20044;-83
2022/12/29 06:12:06;;;;;;;36.80;20.88;;;;;;;4.14;72.75;96060.47;4991221;28;20478;-84
2022/12/29 06:14:32;;;;;;;42.15;20.33;;;;;;;4.35;72.54;96082.97;4973448;28;20062;-83
2022/12/29 06:16:57;;;;;;;38.20;20.98;;;;;;;4.60;72.33;96125.81;4973737;28;20073;-83
2022/12/29 06:19:23;;;;;;;45.78;24.08;;;;;;;4.31;72.74;96066.03;4990698;28;20077;-83
2022/12/29 06:21:48;;;;;;;44.65;22.85;;;;;;;4.25;72.36;96059.81;4987357;28;20045;-83
2022/12/29 06:24:13;;;;;;;45.05;22.58;;;;;;;4.33;72.63;96071.88;4990505;28;20088;-83
2022/12/29 06:26:40;;;;;;;42.00;22.17;;;;;;;4.10;72.38;96027.78;4989425;28;20457;-83
2022/12/29 06:29:07;;;;;;;49.40;23.33;;;;;;;4.25;72.80;96050.09;4972693;28;20080;-83
2022/12/29 06:31:32;;;;;;;47.03;22.15;;;;;;;4.39;72.26;96061.31;4971410;28;20500;-84
2022/12/29 06:33:57;;;;;;;49.92;22.67;;;;;;;4.27;72.22;96037.56;4990415;28;20038;-83
2022/12/29 06:36:23;;;;;;;47.92;22.08;;;;;;;4.22;72.48;96032.16;4972823;28;20026;-83
2022/12/29 06:38:48;;;;;;;42.53;22.95;;;;;;;4.51;72.30;96071.94;4972809;28;20100;-83
2022/12/29 06:41:14;;;;;;;50.45;23.98;;;;;;;4.37;72.30;96046.78;4990298;28;20069;-83
2022/12/29 06:43:39;;;;;;;50.33;22.92;;;;;;;4.62;71.94;96079.94;4972603;28;20041;-82
2022/12/29 06:46:05;;;;;;;46.03;23.27;;;;;;;4.52;72.19;96074.34;4990625;28;20784;-84
2022/12/29 06:48:30;;;;;;;46.85;22.15;;;;;;;4.72;72.03;96099.69;4982824;28;20107;-83
2022/12/29 06:50:56;;;;;;;46.90;22.83;;;;;;;4.60;72.15;96107.44;4964916;28;20125;-83
2022/12/29 06:53:21;;;;;;;42.70;20.98;;;;;;;5.18;72.04;96210.53;4971269;28;20113;-84
2022/12/29 06:55:47;;;;;;;44.53;20.55;;;;;;;4.42;72.07;96081.13;4967459;28;20043;-84
2022/12/29 06:58:12;;;;;;;44.42;22.27;;;;;;;4.92;71.95;96151.06;4990234;28;20034;-84
2022/12/29 07:00:38;;;;;;;42.33;21.67;;;;;;;4.32;71.64;96029.06;4989805;28;20034;-83
2022/12/29 07:03:03;;;;;;;53.13;23.83;;;;;;;4.74;71.15;96092.38;4990078;28;20030;-83
2022/12/29 07:05:31;;;;;;;45.85;22.05;;;;;;;4.89;71.41;96124.38;4981463;28;20119;-83
2022/12/29 07:07:56;;;;;;;49.90;23.52;;;;;;;5.45;71.26;96213.75;4972406;28;20030;-83
2022/12/29 07:10:22;;;;;;;57.72;22.33;;;;;;;5.31;70.87;96178.06;4990066;28;20026;-84
2022/12/29 07:12:48;;;;;;;42.90;23.70;;;;;;;4.78;70.64;96077.78;4972729;28;20417;-84
2022/12/29 07:15:14;;;;;;;53.88;25.85;;;;;;;4.99;70.51;96091.34;4985772;28;20065;-83
2022/12/29 07:17:39;;;;;;;59.03;28.02;;;;;;;4.89;70.22;96074.44;4970683;28;20722;-83
2022/12/29 07:20:06;;;;;;;50.92;26.02;;;;;;;5.22;70.20;96132.81;4972756;28;20062;-83
2022/12/29 07:22:31;;;;;;;47.38;23.67;;;;;;;4.74;70.04;96045.06;4985807;28;20084;-83
2022/12/29 07:24:57;;;;;;;54.25;27.13;;;;;;;5.55;70.32;96198.28;4981009;28;20434;-83
2022/12/29 07:27:22;;;;;;;59.42;27.83;;;;;;;5.09;70.52;96101.38;4971771;28;20462;-83
2022/12/29 07:29:48;;;;;;;59.72;28.48;;;;;;;5.71;70.51;96179.28;4970548;28;20045;-83
2022/12/29 07:32:13;;;;;;;55.97;28.42;;;;;;;5.03;69.38;96055.72;4990236;28;20035;-84
2022/12/29 07:34:39;;;;;;;57.45;28.02;;;;;;;5.86;69.07;96176.31;4987202;28;20524;-83
2022/12/29 07:37:05;;;;;;;60.78;28.67;;;;;;;5.93;69.53;96187.59;4989375;28;20096;-83
2022/12/29 07:39:30;;;;;;;63.80;28.65;;;;;;;5.64;69.11;96141.72;4973685;28;20044;-83
2022/12/29 07:41:56;;;;;;;56.63;27.83;;;;;;;5.75;69.28;96140.97;4988338;28;20030;-83
2022/12/29 07:44:21;;;;;;;51.97;27.67;;;;;;;6.05;68.71;96166.59;4989639;28;20028;-84
2022/12/29 07:46:46;;;;;;;57.05;28.50;;;;;;;5.66;68.44;96108.06;4989490;28;20034;-83
2022/12/29 07:49:12;;;;;;;55.67;28.73;;;;;;;6.07;68.51;96164.53;4985803;28;20481;-83
2022/12/29 07:51:38;;;;;;;60.53;29.27;;;;;;;6.45;68.06;96217.78;4970959;28;20036;-83
2022/12/29 07:54:03;;;;;;;57.03;28.23;;;;;;;5.38;68.49;96087.53;4989333;28;20030;-84
2022/12/29 07:56:29;;;;;;;63.63;28.83;;;;;;;5.58;69.34;96133.88;4971140;28;20034;-83
2022/12/29 07:58:54;;;;;;;61.28;27.67;;;;;;;6.31;68.69;96213.69;4989403;28;20085;-84
2022/12/29 08:01:20;;;;;;;54.97;29.38;;;;;;;6.20;67.89;96172.28;4989250;28;20765;-84
2022/12/29 08:03:45;;;;;;;52.70;28.90;;;;;;;6.57;67.84;96215.16;4988835;28;20039;-83
2022/12/29 08:06:11;;;;;;;47.58;28.17;;;;;;;6.34;67.74;96167.63;4971128;28;20445;-84
2022/12/29 08:08:37;;;;;;;57.95;27.92;;;;;;;6.05;67.69;96122.63;4975558;28;20038;-84
2022/12/29 08:11:03;;;;;;;52.38;26.95;;;;;;;6.48;67.80;96201.53;4993348;28;20045;-83
2022/12/29 08:13:28;;;;;;;55.40;27.60;;;;;;;6.45;67.63;96178.25;4975037;28;20038;-83
2022/12/29 08:15:54;;;;;;;55.33;28.55;;;;;;;6.69;66.96;96194.16;4959474;28;20034;-84
2022/12/29 08:18:19;;;;;;;63.03;26.52;;;;;;;5.62;67.55;96056.09;4993263;28;20485;-83
2022/12/29 08:20:45;;;;;;;53.28;28.10;;;;;;;6.38;67.09;96147.75;4992403;28;20121;-84
2022/12/29 08:23:10;;;;;;;49.60;26.77;;;;;;;5.85;66.93;96065.94;4985404;28;20039;-83
2022/12/29 08:25:35;;;;;;;42.65;25.23;;;;;;;6.17;66.85;96117.44;4992850;28;20077;-84
2022/12/29 08:28:01;;;;;;;49.17;26.90;;;;;;;6.08;67.50;96100.31;4975740;28;20453;-84
2022/12/29 08:30:26;;;;;;;55.72;27.60;;;;;;;6.40;67.50;96141.22;4993433;28;20409;-83
2022/12/29 08:32:52;;;;;;;56.95;25.98;;;;;;;6.13;67.21;96092.53;4975660;28;20065;-83
2022/12/29 08:35:17;;;;;;;50.38;25.55;;;;;;;6.32;67.09;96136.28;4992499;28;20041;-82
2022/12/29 08:37:43;;;;;;;48.20;27.20;;;;;;;6.16;66.81;96110.53;4991348;28;20520;-83
2022/12/29 08:40:08;;;;;;;45.47;25.65;;;;;;;6.36;66.52;96126.06;4973791;28;20049;-83
2022/12/29 08:42:34;;;;;;;57.47;27.30;;;;;;;6.98;66.20;96211.78;4991730;28;20030;-83
2022/12/29 08:45:00;;;;;;;49.30;26.83;;;;;;;7.00;65.98;96196.53;4991814;28;20109;-84
2022/12/29 08:47:26;;;;;;;49.03;25.67;;;;;;;6.73;66.03;96146.00;4981274;28;20061;-84
2022/12/29 08:49:51;;;;;;;53.30;26.95;;;;;;;7.09;65.96;96200.47;4992456;28;20049;-83
2022/12/29 08:52:17;;;;;;;50.05;26.08;;;;;;;6.38;66.52;96119.56;4994153;28;20409;-84
2022/12/29 08:54:43;;;;;;;47.35;25.20;;;;;;;6.38;66.28;96116.94;4975141;28;20045;-83
2022/12/29 08:57:08;;;;;;;52.20;27.35;;;;;;;6.05;67.46;96077.03;4974835;28;20041;-83
2022/12/29 08:59:34;;;;;;;46.33;26.70;;;;;;;6.67;67.73;96191.72;4992365;28;20117;-83
2022/12/29 09:02:00;;;;;;;48.05;26.10;;;;;;;6.03;66.95;96055.41;4992725;28;20030;-83
2022/12/29 09:04:26;;;;;;;49.63;27.13;;;;;;;6.49;67.05;96117.97;4975003;28;20038;-84
2022/12/29 09:06:52;;;;;;;51.58;25.23;;;;;;;6.06;67.41;96063.66;4975907;28;20126;-84
2022/12/29 09:09:18;;;;;;;45.83;25.00;;;;;;;6.80;67.40;96188.09;4992278;28;20030;-84
2022/12/29 09:11:43;;;;;;;44.78;25.02;;;;;;;6.23;67.84;96113.91;4977314;28;20038;-84
2022/12/29 09:14:09;;;;;;;48.53;27.08;;;;;;;6.87;67.82;96178.25;4974353;28;20034;-84
2022/12/29 09:16:35;;;;;;;44.25;24.95;;;;;;;6.40;67.11;96079.81;4968078;28;20042;-84
2022/12/29 09:19:02;;;;;;;41.58;23.98;;;;;;;6.23;67.93;96078.84;4980910;28;20139;-84
2022/12/29 09:21:27;;;;;;;43.83;23.90;;;;;;;5.95;68.57;96055.72;4990024;28;20476;-84
2022/12/29 09:23:52;;;;;;;47.38;25.10;;;;;;;6.28;68.54;96107.94;4974225;28;20045;-83
2022/12/29 09:26:18;;;;;;;51.45;26.05;;;;;;;6.29;68.09;96083.22;4991910;28;20042;-85
2022/12/29 09:28:44;;;;;;;45.42;23.63;;;;;;;6.70;68.93;96180.75;4989920;28;20105;-84
2022/12/29 09:31:10;;;;;;;42.65;23.40;;;;;;;5.71;68.90;96023.22;4973603;28;20035;-84
2022/12/29 09:33:35;;;;;;;50.20;24.00;;;;;;;6.84;68.96;96176.88;4991564;28;20042;-84
2022/12/29 09:36:01;;;;;;;46.03;25.35;;;;;;;6.37;68.95;96078.44;4974332;28;20101;-85
2022/12/29 09:38:27;;;;;;;46.50;25.02;;;;;;;5.97;68.25;96012.34;4990266;28;20136;-82
2022/12/29 09:41:24;;;;;;;51.30;25.30;;;;;;;6.66;68.83;96099.69;4974296;28;20046;-85
2022/12/29 09:44:15;;;;;;;47.53;25.23;;;;;;;7.16;68.14;96166.88;4991724;28;20113;-84
2022/12/29 09:46:46;;;;;;;44.13;24.60;;;;;;;7.24;68.17;96161.25;4973924;28;20050;-84
2022/12/29 09:49:45;;;;;;;54.00;24.48;;;;;;;6.58;67.97;96040.19;4973856;28;20115;-84
2022/12/29 09:52:20;;;;;;;45.38;23.98;;;;;;;6.72;67.66;96062.69;4970175;28;20086;-83
2022/12/29 09:54:50;;;;;;;42.58;23.08;;;;;;;7.49;67.66;96147.81;4988946;28;20108;-84
2022/12/29 09:57:54;;;;;;;50.05;25.67;;;;;;;7.33;67.70;96145.84;4991232;28;20084;-84
2022/12/29 10:00:22;;;;;;;44.65;24.38;;;;;;;7.33;67.61;96140.59;4956183;28;20038;-84
2022/12/29 10:02:56;;;;;;;49.75;26.15;;;;;;;7.32;67.55;96129.22;4989381;28;20098;-82
2022/12/29 10:05:22;;;;;;;44.40;24.63;;;;;;;7.54;67.63;96134.75;4988118;28;20036;-83
2022/12/29 10:08:02;;;;;;;44.13;25.13;;;;;;;7.42;67.55;96131.28;4973324;28;20145;-83
2022/12/29 10:10:36;;;;;;;46.97;25.92;;;;;;;7.52;67.29;96136.00;5005928;28;20116;-83
2022/12/29 10:13:19;;;;;;;49.78;25.88;;;;;;;7.57;67.14;96129.00;4973312;28;20193;-83
2022/12/29 10:16:13;;;;;;;49.70;24.85;;;;;;;7.52;67.69;96136.00;4973272;28;20093;-84
2022/12/29 10:18:46;;;;;;;46.00;25.77;;;;;;;7.81;67.21;96121.84;4987213;28;20035;-84
2022/12/29 10:21:49;;;;;;;53.45;24.45;;;;;;;8.01;65.28;96058.84;4972923;28;20480;-83
2022/12/29 10:24:18;;;;;;;49.75;26.00;;;;;;;9.18;63.97;96092.59;4988482;28;20034;-84
2022/12/29 10:26:47;;;;;;;42.30;22.65;;;;;;;9.40;61.29;96008.72;4991175;28;20116;-84
2022/12/29 10:29:28;;;;;;;42.45;22.15;;;;;;;10.75;59.30;96116.56;4972864;28;20394;-84
2022/12/29 10:32:00;;;;;;;45.80;22.83;;;;;;;11.16;57.60;96112.38;4972187;28;20026;-83
2022/12/29 10:34:34;;;;;;;39.92;21.83;;;;;;;11.46;56.18;96085.22;4971970;28;20045;-83
2022/12/29 10:37:11;;;;;;;45.08;22.40;;;;;;;11.26;54.41;96012.59;4972165;28;20576;-83
2022/12/29 10:39:45;;;;;;;40.47;21.77;;;;;;;10.72;54.03;95880.94;4972491;28;20093;-84
2022/12/29 10:42:40;;;;;;;42.55;21.73;;;;;;;12.33;53.36;96103.19;4972556;28;20030;-83
2022/12/29 10:45:12;;;;;;;41.00;22.30;;;;;;;12.18;52.50;96035.88;4972499;28;20058;-83
2022/12/29 10:47:45;;;;;;;38.20;22.15;;;;;;;12.49;52.44;96076.63;4990164;28;20035;-83
2022/12/29 10:50:12;;;;;;;36.85;22.90;;;;;;;11.96;52.18;96010.28;5005267;28;20038;-84
2022/12/29 10:52:39;;;;;;;45.33;24.25;;;;;;;12.37;51.86;96040.44;4986098;28;20026;-84
2022/12/29 10:55:12;;;;;;;38.15;22.67;;;;;;;12.81;51.18;96097.72;4987629;28;20038;-83
2022/12/29 10:57:46;;;;;;;46.67;24.65;;;;;;;12.67;51.16;96036.19;4972537;28;20477;-84
2022/12/29 11:00:22;;;;;;;38.40;23.75;;;;;;;12.99;50.87;96076.69;4971935;28;20076;-83
2022/12/29 11:03:29;;;;;;;40.75;22.98;;;;;;;13.07;50.74;96068.16;4987046;28;20061;-83
2022/12/29 11:06:06;;;;;;;39.88;22.65;;;;;;;13.04;50.94;96071.38;4964300;28;20069;-84
2022/12/29 11:08:56;;;;;;;41.83;23.10;;;;;;;13.04;50.83;96071.38;4989882;28;20088;-84
2022/12/29 11:11:32;;;;;;;37.08;20.80;;;;;;;12.91;51.14;96071.88;4989435;28;20053;-84
2022/12/29 11:14:13;;;;;;;34.30;21.42;;;;;;;12.67;51.44;96068.94;4972550;28;20609;-84
2022/12/29 11:16:41;;;;;;;34.50;22.25;;;;;;;12.25;51.50;96026.59;4990309;28;20567;-83
2022/12/29 11:19:20;;;;;;;41.05;22.77;;;;;;;12.03;52.27;96025.19;4989504;28;20138;-84
2022/12/29 11:21:46;;;;;;;39.17;24.13;;;;;;;11.72;52.54;95971.13;4972029;28;20027;-84
2022/12/29 11:24:29;;;;;;;41.30;23.30;;;;;;;11.79;53.46;96025.66;4970931;28;20105;-83
2022/12/29 11:27:08;;;;;;;39.17;23.88;;;;;;;11.93;53.08;96060.50;4989667;28;20504;-83
2022/12/29 11:29:39;;;;;;;43.58;23.98;;;;;;;12.08;53.06;96060.56;4989735;28;20039;-84
2022/12/29 11:32:31;;;;;;;37.92;22.58;;;;;;;11.81;53.74;96038.69;4986544;28;20030;-83
2022/12/29 11:34:58;;;;;;;36.88;23.55;;;;;;;12.02;53.45;96050.97;4969080;28;20047;-83
2022/12/29 11:37:28;;;;;;;40.00;23.52;;;;;;;12.10;53.29;96050.47;4989905;28;20026;-83
2022/12/29 11:39:56;;;;;;;41.42;24.67;;;;;;;12.09;53.10;96051.53;5004539;28;20042;-83
2022/12/29 11:42:32;;;;;;;41.58;24.30;;;;;;;11.42;53.57;95942.56;4972680;28;20167;-83
2022/12/29 11:45:05;;;;;;;49.42;24.60;;;;;;;11.22;53.47;95945.94;4969770;28;20038;-82
2022/12/29 11:47:33;;;;;;;60.58;25.48;;;;;;;11.12;54.28;95964.47;4980210;28;20031;-84
2022/12/29 11:50:08;;;;;;;45.42;24.15;;;;;;;11.61;54.06;96032.16;4971979;28;20525;-83
2022/12/29 11:52:39;;;;;;;52.22;26.48;;;;;;;11.68;54.01;96002.69;4972228;28;20129;-84
2022/12/29 11:55:17;;;;;;;51.88;25.88;;;;;;;11.91;53.65;96025.41;4956769;28;20097;-83
2022/12/29 11:57:43;;;;;;;49.22;25.55;;;;;;;11.62;53.82;95995.78;4989503;28;20045;-84
2022/12/29 12:00:25;;;;;;;42.65;24.83;;;;;;;11.91;53.98;96044.00;4989045;28;21212;-83
2022/12/29 12:03:13;;;;;;;38.83;20.95;;;;;;;11.55;55.29;96038.53;4971665;28;20045;-84
2022/12/29 12:05:53;;;;;;;36.15;21.13;;;;;;;11.11;55.37;95949.59;4989556;28;20031;-83